Time;durP1;ratioP1;P1;durP2;ratioP2;P2;SDS_P1;SDS_P2;PMS_P1;PMS_P2;Temp;Humidity;BMP_temperature;BMP_pressure;BME280_temperature;BME280_humidity;BME280_pressure;Samples;Min_cycle;Max_cycle;Signal;HPM_P1;HPM_P2
2022/09/30 00:01:43;;;;;;;23.57;10.23;;;;;;;17.15;100.00;98879.72;1793947;79;20929;-70
2022/09/30 00:04:15;;;;;;;13.40;9.15;;;;;;;17.14;100.00;98877.52;1797101;79;21148;-70
2022/09/30 00:06:42;;;;;;;11.40;9.08;;;;;;;17.14;100.00;98877.52;1738981;82;20984;-74
2022/09/30 00:09:10;;;;;;;10.75;7.92;;;;;;;17.15;100.00;98872.18;1745850;82;20918;-71
2022/09/30 00:11:42;;;;;;;11.65;8.30;;;;;;;17.17;100.00;98874.58;1737518;82;20994;-72
2022/09/30 00:14:26;;;;;;;15.05;8.75;;;;;;;17.17;100.00;98882.92;1738624;82;20970;-72
2022/09/30 00:16:58;;;;;;;15.15;9.23;;;;;;;17.17;100.00;98880.14;1737466;82;20871;-74
2022/09/30 00:19:27;;;;;;;11.68;8.55;;;;;;;17.15;100.00;98877.74;1746055;82;21516;-74
2022/09/30 00:21:53;;;;;;;11.08;9.05;;;;;;;17.15;100.00;98882.50;1737963;82;21029;-72
2022/09/30 00:24:20;;;;;;;12.65;8.85;;;;;;;17.16;100.00;98882.73;1745960;82;20886;-73
2022/09/30 00:26:46;;;;;;;13.48;9.00;;;;;;;17.18;100.00;98881.73;1737670;82;21001;-71
2022/09/30 00:29:13;;;;;;;9.60;8.20;;;;;;;17.19;100.00;98883.94;1746289;82;21093;-71
2022/09/30 00:31:40;;;;;;;14.87;9.00;;;;;;;17.19;100.00;98880.57;1737501;82;21404;-73
2022/09/30 00:34:06;;;;;;;11.55;8.95;;;;;;;17.21;100.00;98887.95;1746263;82;21474;-71
2022/09/30 00:36:46;;;;;;;15.05;9.15;;;;;;;17.21;100.00;98886.56;1737524;82;20926;-71
2022/09/30 00:39:14;;;;;;;13.08;8.53;;;;;;;17.13;100.00;98894.02;1736418;82;20996;-72
2022/09/30 00:41:40;;;;;;;11.43;7.85;;;;;;;17.11;100.00;98902.55;1746333;82;21053;-71
2022/09/30 00:44:44;;;;;;;14.00;8.78;;;;;;;17.12;100.00;98902.17;1728126;82;21531;-70
2022/09/30 00:47:42;;;;;;;11.48;8.53;;;;;;;17.13;100.00;98903.76;1690062;82;20908;-72
2022/09/30 00:50:34;;;;;;;12.07;7.70;;;;;;;17.17;100.00;98907.98;1777114;80;20940;-71
2022/09/30 00:53:15;;;;;;;13.22;8.75;;;;;;;17.17;100.00;98910.77;1763120;79;20988;-71
2022/09/30 00:55:47;;;;;;;12.37;8.15;;;;;;;17.18;100.00;98913.74;1747444;82;21483;-70
2022/09/30 00:58:22;;;;;;;11.28;8.80;;;;;;;17.17;100.00;98907.98;1747498;82;20912;-70
2022/09/30 01:00:50;;;;;;;14.50;8.90;;;;;;;17.18;100.00;98915.75;1747328;82;21044;-71
2022/09/30 01:03:19;;;;;;;15.43;8.15;;;;;;;17.17;100.00;98902.99;1747500;82;20909;-69
2022/09/30 01:05:45;;;;;;;11.73;8.03;;;;;;;17.14;100.00;98899.00;1747290;82;20952;-71
2022/09/30 01:08:17;;;;;;;11.33;7.95;;;;;;;17.10;100.00;98900.93;1746705;81;21872;-71
2022/09/30 01:10:43;;;;;;;11.63;7.22;;;;;;;17.10;100.00;98903.71;1747401;81;20963;-72
2022/09/30 01:13:12;;;;;;;11.05;7.67;;;;;;;17.10;100.00;98907.30;1711379;83;20909;-71
2022/09/30 01:15:55;;;;;;;10.88;6.58;;;;;;;17.08;100.00;98908.23;1690578;83;20992;-69
2022/09/30 01:18:49;;;;;;;7.45;6.25;;;;;;;17.10;100.00;98912.06;1711291;83;20868;-70
2022/09/30 01:25:36;;;;;;;12.30;6.22;;;;;;;17.04;100.00;98912.37;1711239;83;20924;-73
2022/09/30 01:28:51;;;;;;;13.50;7.95;;;;;;;17.08;100.00;98924.13;1708759;84;20976;-70
2022/09/30 01:31:51;;;;;;;11.85;6.85;;;;;;;17.09;100.00;98929.37;1708671;84;21012;-72
2022/09/30 01:34:48;;;;;;;11.43;6.42;;;;;;;17.05;100.00;98927.09;1752215;80;20917;-72
2022/09/30 01:37:43;;;;;;;14.78;6.92;;;;;;;17.03;100.00;98930.83;1747318;82;21241;-71
2022/09/30 01:40:21;;;;;;;11.83;7.80;;;;;;;16.96;100.00;98935.72;1747336;82;20925;-72
2022/09/30 01:43:10;;;;;;;11.33;7.10;;;;;;;17.09;100.00;98937.72;1748214;81;20917;-72
2022/09/30 01:45:49;;;;;;;12.15;7.33;;;;;;;17.08;100.00;98931.08;1762643;81;20953;-72
2022/09/30 01:48:28;;;;;;;11.12;7.62;;;;;;;17.03;100.00;98937.79;1743946;81;20993;-71
2022/09/30 01:51:00;;;;;;;13.28;7.20;;;;;;;17.04;100.00;98934.63;1762855;81;20995;-70
2022/09/30 01:53:38;;;;;;;9.58;6.53;;;;;;;17.01;100.00;98932.61;1763219;81;21011;-72
2022/09/30 01:56:24;;;;;;;10.18;5.92;;;;;;;17.02;100.00;98934.23;1763043;81;20900;-71
2022/09/30 01:59:08;;;;;;;9.80;6.67;;;;;;;17.01;100.00;98932.61;1763121;81;20886;-73
2022/09/30 02:01:43;;;;;;;11.68;6.97;;;;;;;16.99;100.00;98936.95;1762839;81;21044;-73
2022/09/30 02:04:13;;;;;;;9.48;6.75;;;;;;;17.00;100.00;98933.80;1763011;81;21087;-72
2022/09/30 02:06:44;;;;;;;9.10;6.15;;;;;;;17.01;100.00;98935.39;1762908;81;20938;-72
2022/09/30 02:09:19;;;;;;;9.90;6.22;;;;;;;17.01;100.00;98931.22;1762949;81;20945;-73
2022/09/30 02:11:46;;;;;;;7.83;5.55;;;;;;;17.01;100.00;98927.05;1762920;81;20993;-72
2022/09/30 02:14:29;;;;;;;7.85;6.08;;;;;;;17.03;100.00;98938.60;1762914;80;20934;-73
2022/09/30 02:17:23;;;;;;;11.67;5.53;;;;;;;17.01;100.00;98938.17;1763206;81;21765;-72
2022/09/30 02:19:58;;;;;;;8.75;5.97;;;;;;;16.98;100.00;98944.50;1762289;81;21058;-70
2022/09/30 02:22:42;;;;;;;16.57;6.10;;;;;;;16.98;100.00;98945.08;1761406;81;21016;-72
2022/09/30 02:25:05;;;;;;;11.48;7.22;;;;;;;16.99;100.00;98943.30;1763286;81;20882;-70
2022/09/30 02:27:41;;;;;;;11.15;8.18;;;;;;;16.99;100.00;98948.09;1762795;81;20900;-70
2022/09/30 02:30:10;;;;;;;9.43;7.15;;;;;;;17.01;100.00;98940.95;1762420;81;21111;-72
2022/09/30 02:32:44;;;;;;;12.20;8.05;;;;;;;17.03;100.00;98946.14;1762805;81;20913;-71
2022/09/30 02:35:18;;;;;;;14.00;7.40;;;;;;;17.02;100.00;98945.36;1759713;81;20901;-69
2022/09/30 02:37:49;;;;;;;9.95;7.10;;;;;;;17.03;100.00;98944.75;1762433;81;21017;-71
2022/09/30 02:40:29;;;;;;;19.23;6.60;;;;;;;17.02;100.00;98946.75;1763076;81;20996;-71
2022/09/30 02:42:55;;;;;;;10.75;6.03;;;;;;;16.99;100.00;98951.66;1762692;81;21349;-71
2022/09/30 02:45:22;;;;;;;12.25;6.80;;;;;;;16.95;100.00;98945.84;1764749;80;20837;-72
2022/09/30 02:48:06;;;;;;;7.50;6.17;;;;;;;16.95;100.00;98943.86;1765653;80;21036;-71
2022/09/30 02:50:45;;;;;;;9.48;5.92;;;;;;;16.90;100.00;98940.02;1764848;80;21439;-71
2022/09/30 02:53:29;;;;;;;14.50;6.33;;;;;;;16.75;100.00;98937.03;1765606;80;20913;-69
2022/09/30 02:56:54;;;;;;;13.13;6.20;;;;;;;16.66;100.00;98937.33;1765413;80;21103;-70
2022/09/30 02:59:21;;;;;;;12.03;6.62;;;;;;;16.66;100.00;98936.52;1765604;81;21537;-72
2022/09/30 03:01:48;;;;;;;11.45;6.85;;;;;;;16.63;100.00;98946.41;1746096;81;21040;-72
2022/09/30 03:04:20;;;;;;;10.32;6.75;;;;;;;16.60;100.00;98942.20;1765514;81;21360;-70
2022/09/30 03:06:46;;;;;;;8.28;6.12;;;;;;;16.59;100.00;98935.02;1765744;80;21506;-71
2022/09/30 03:09:13;;;;;;;9.98;5.72;;;;;;;16.54;100.00;98942.53;1765644;81;21808;-70
2022/09/30 03:11:41;;;;;;;9.18;6.45;;;;;;;16.47;100.00;98945.77;1765424;81;21064;-72
2022/09/30 03:14:32;;;;;;;11.68;7.72;;;;;;;16.45;100.00;98943.95;1765434;80;20956;-72
2022/09/30 03:17:16;;;;;;;11.63;7.47;;;;;;;16.47;100.00;98942.41;1754235;81;20917;-73
2022/09/30 03:19:50;;;;;;;15.55;8.15;;;;;;;16.49;100.00;98947.02;1764797;81;20861;-71
2022/09/30 03:23:00;;;;;;;16.23;7.97;;;;;;;16.53;100.00;98955.42;1765807;81;22124;-71
2022/09/30 03:25:56;;;;;;;10.85;6.87;;;;;;;16.55;100.00;98960.80;1765487;80;21089;-71
2022/09/30 03:28:30;;;;;;;10.58;8.50;;;;;;;16.60;100.00;98969.41;1765554;81;20862;-71
2022/09/30 03:31:06;;;;;;;;;;;;;;;16.65;100.00;98969.70;1768460;80;21008;-70
2022/09/30 03:33:50;;;;;;;14.63;9.20;;;;;;;16.75;100.00;98963.45;1765529;81;20157;-70
2022/09/30 03:36:38;;;;;;;16.05;10.28;;;;;;;16.78;100.00;98969.69;1766071;81;21250;-73
2022/09/30 03:39:13;;;;;;;18.82;9.65;;;;;;;16.84;100.00;98973.53;1765404;81;21012;-74
2022/09/30 03:41:49;;;;;;;17.90;10.10;;;;;;;16.91;100.00;98983.34;1764971;81;21414;-71
2022/09/30 03:44:27;;;;;;;13.22;10.15;;;;;;;16.96;100.00;98984.41;1764416;79;20944;-74
2022/09/30 03:47:05;;;;;;;14.07;10.08;;;;;;;17.00;100.00;98981.68;1759332;81;21398;-72
2022/09/30 03:49:55;;;;;;;14.25;9.23;;;;;;;17.01;100.00;98985.48;1762462;81;21611;-73
2022/09/30 03:52:22;;;;;;;11.88;9.85;;;;;;;17.04;100.00;98992.28;1744149;81;20881;-74
2022/09/30 03:54:55;;;;;;;12.43;9.63;;;;;;;17.07;100.00;98997.67;1762884;81;20965;-71
2022/09/30 03:57:29;;;;;;;12.60;10.25;;;;;;;17.10;100.00;98998.33;1762861;81;21038;-72
2022/09/30 03:59:57;;;;;;;12.65;10.00;;;;;;;17.13;100.00;99007.31;1763030;81;21067;-72
2022/09/30 04:02:25;;;;;;;14.05;9.78;;;;;;;17.13;100.00;99016.47;1762930;81;21430;-72
2022/09/30 04:04:51;;;;;;;13.43;9.68;;;;;;;17.16;100.00;99023.28;1762790;81;20933;-71
2022/09/30 04:07:19;;;;;;;13.00;9.63;;;;;;;17.17;100.00;99023.48;1762765;81;20940;-72
2022/09/30 04:09:45;;;;;;;14.20;10.03;;;;;;;17.19;100.00;99029.48;1762821;81;21195;-72
2022/09/30 04:12:13;;;;;;;13.43;9.88;;;;;;;17.20;100.00;99040.81;1762898;81;20873;-72
2022/09/30 04:14:41;;;;;;;10.25;9.15;;;;;;;17.22;100.00;99044.03;1762436;80;20868;-72
2022/09/30 04:17:10;;;;;;;15.18;9.13;;;;;;;17.21;100.00;99046.61;1762977;81;21457;-72
2022/09/30 04:19:39;;;;;;;12.75;9.90;;;;;;;17.24;100.00;99045.05;1762935;81;20999;-73
2022/09/30 04:22:07;;;;;;;13.68;9.85;;;;;;;17.24;100.00;99044.46;1762917;81;20977;-72
2022/09/30 04:24:38;;;;;;;12.43;9.35;;;;;;;17.25;100.00;99044.66;1762892;81;20897;-71
2022/09/30 04:27:05;;;;;;;14.40;9.80;;;;;;;17.24;100.00;99050.03;1762991;81;21198;-71
2022/09/30 04:29:33;;;;;;;10.35;9.28;;;;;;;17.25;100.00;99052.20;1762953;81;20905;-72
2022/09/30 04:32:02;;;;;;;13.25;9.58;;;;;;;17.26;100.00;99046.86;1762909;80;20886;-71
2022/09/30 04:34:28;;;;;;;16.32;10.35;;;;;;;17.25;100.00;99043.27;1762834;81;20956;-71
2022/09/30 04:36:55;;;;;;;13.65;10.28;;;;;;;17.27;100.00;99057.63;1762929;81;20929;-72
2022/09/30 04:39:21;;;;;;;14.40;10.90;;;;;;;17.30;100.00;99062.23;1763230;81;21098;-71
2022/09/30 04:41:47;;;;;;;14.07;10.63;;;;;;;17.31;100.00;99058.25;1762869;81;20929;-72
2022/09/30 04:44:17;;;;;;;14.75;11.00;;;;;;;17.30;100.00;99049.09;1762664;81;21036;-69
2022/09/30 04:46:45;;;;;;;13.55;10.38;;;;;;;17.31;100.00;99051.30;1762859;81;21509;-72
2022/09/30 04:49:11;;;;;;;11.75;10.53;;;;;;;17.36;100.00;99057.92;1762810;81;20837;-70
2022/09/30 04:51:42;;;;;;;11.57;10.08;;;;;;;17.36;100.00;99064.89;1762848;81;21050;-71
2022/09/30 04:54:09;;;;;;;21.23;12.35;;;;;;;17.38;100.00;99070.88;1762812;81;20976;-74
2022/09/30 04:56:36;;;;;;;12.70;11.05;;;;;;;17.38;100.00;99068.88;1763337;81;20925;-72
2022/09/30 04:59:02;;;;;;;17.82;11.90;;;;;;;17.40;100.00;99070.70;1762885;81;21486;-72
2022/09/30 05:01:29;;;;;;;13.70;10.85;;;;;;;17.43;100.00;99078.91;1762944;81;20984;-72
2022/09/30 05:03:57;;;;;;;15.38;10.05;;;;;;;17.46;100.00;99081.52;1762939;81;21004;-72
2022/09/30 05:06:23;;;;;;;11.73;9.98;;;;;;;17.47;100.00;99085.31;1762779;81;20914;-72
2022/09/30 05:08:52;;;;;;;12.98;10.85;;;;;;;17.49;100.00;99083.53;1762925;81;20882;-75
2022/09/30 05:11:20;;;;;;;14.45;10.50;;;;;;;17.51;100.00;99082.58;1763060;81;20964;-71
2022/09/30 05:13:49;;;;;;;13.10;10.48;;;;;;;17.53;100.00;99084.40;1762995;81;20980;-71
2022/09/30 05:16:28;;;;;;;13.70;10.32;;;;;;;17.55;100.00;99084.02;1721701;81;21056;-71
2022/09/30 05:18:54;;;;;;;15.43;10.60;;;;;;;17.55;100.00;99079.26;1762871;81;21400;-71
2022/09/30 05:21:21;;;;;;;14.20;11.25;;;;;;;17.57;100.00;99083.84;1762803;81;20865;-72
2022/09/30 05:23:49;;;;;;;16.57;11.38;;;;;;;17.59;100.00;99090.42;1762758;81;20913;-72
2022/09/30 05:26:15;;;;;;;11.10;9.80;;;;;;;17.60;100.00;99094.83;1762951;81;20896;-73
2022/09/30 05:28:42;;;;;;;13.22;10.20;;;;;;;17.61;100.00;99104.77;1762822;81;21054;-72
2022/09/30 05:31:10;;;;;;;12.65;11.30;;;;;;;17.64;100.00;99106.80;1762924;81;20953;-72
2022/09/30 05:33:37;;;;;;;13.93;10.20;;;;;;;17.62;100.00;99111.36;1763180;81;20909;-73
2022/09/30 05:36:06;;;;;;;11.95;10.35;;;;;;;17.66;100.00;99118.38;1762831;81;20928;-72
2022/09/30 05:38:36;;;;;;;13.20;10.78;;;;;;;17.71;100.00;99122.22;1762834;81;20871;-71
2022/09/30 05:41:12;;;;;;;18.45;11.48;;;;;;;17.70;100.00;99127.59;1763025;81;21489;-73
2022/09/30 05:43:40;;;;;;;11.95;10.65;;;;;;;17.68;100.00;99135.52;1762981;81;20977;-72
2022/09/30 05:46:07;;;;;;;13.18;11.08;;;;;;;17.69;100.00;99138.50;1762820;81;21509;-72
2022/09/30 05:48:33;;;;;;;18.17;12.15;;;;;;;17.66;100.00;99139.27;1762880;81;20953;-72
2022/09/30 05:51:01;;;;;;;12.98;11.15;;;;;;;17.64;100.00;99138.25;1762741;81;20996;-72
2022/09/30 05:53:28;;;;;;;13.65;11.30;;;;;;;17.75;100.00;99141.19;1745889;81;21132;-69
2022/09/30 05:55:57;;;;;;;14.05;11.73;;;;;;;17.81;100.00;99128.31;1762778;81;21388;-71
2022/09/30 05:58:23;;;;;;;14.68;11.85;;;;;;;17.87;100.00;99143.51;1762895;81;20924;-71
2022/09/30 06:00:50;;;;;;;15.35;12.03;;;;;;;17.90;100.00;99138.56;1745772;81;21478;-72
2022/09/30 06:03:17;;;;;;;18.20;13.10;;;;;;;17.94;100.00;99133.84;1762761;81;21501;-72
2022/09/30 06:05:44;;;;;;;15.53;12.80;;;;;;;17.94;100.00;99152.55;1743755;81;21067;-70
2022/09/30 06:08:12;;;;;;;17.80;13.85;;;;;;;17.98;100.00;99147.22;1762860;81;20861;-71
2022/09/30 06:10:45;;;;;;;16.20;13.45;;;;;;;17.99;100.00;99153.02;1762869;81;20921;-73
2022/09/30 06:13:23;;;;;;;19.20;13.50;;;;;;;18.03;100.00;99154.46;1760425;81;20972;-71
2022/09/30 06:15:57;;;;;;;16.20;13.98;;;;;;;18.04;100.00;99158.84;1763068;80;20925;-71
2022/09/30 06:18:27;;;;;;;16.57;13.62;;;;;;;18.04;100.00;99163.61;1762677;81;21184;-70
2022/09/30 06:20:57;;;;;;;18.90;14.07;;;;;;;18.05;100.00;99159.66;1763077;81;20901;-71
2022/09/30 06:23:24;;;;;;;22.10;13.78;;;;;;;18.05;100.00;99173.59;1763074;81;20912;-71
2022/09/30 06:25:52;;;;;;;20.27;14.70;;;;;;;18.11;100.00;99165.09;1762683;81;20965;-72
2022/09/30 06:28:21;;;;;;;20.25;14.28;;;;;;;18.15;100.00;99160.38;1746231;81;20974;-71
2022/09/30 06:30:47;;;;;;;20.80;16.50;;;;;;;18.18;100.00;99165.22;1762888;81;21089;-75
2022/09/30 06:33:16;;;;;;;19.82;15.53;;;;;;;18.24;100.00;99165.66;1762664;81;20933;-71
2022/09/30 06:35:43;;;;;;;23.80;17.02;;;;;;;18.25;100.00;99164.48;1762743;81;20913;-70
2022/09/30 06:38:09;;;;;;;25.43;17.23;;;;;;;18.33;100.00;99170.35;1762827;81;20921;-71
2022/09/30 06:40:37;;;;;;;19.15;15.10;;;;;;;18.34;100.00;99168.34;1762892;81;21488;-71
2022/09/30 06:43:03;;;;;;;23.47;15.48;;;;;;;18.45;100.00;99174.86;1762883;81;21081;-70
2022/09/30 06:45:31;;;;;;;19.82;15.65;;;;;;;18.53;100.00;99172.13;1762548;81;20921;-72
2022/09/30 06:47:59;;;;;;;20.62;16.45;;;;;;;18.57;100.00;99175.77;1743733;81;20992;-71
2022/09/30 06:50:25;;;;;;;20.45;15.40;;;;;;;18.64;100.00;99173.64;1762762;81;21422;-71
2022/09/30 06:52:58;;;;;;;20.55;15.65;;;;;;;18.68;100.00;99179.45;1762765;81;20972;-71
2022/09/30 06:55:26;;;;;;;20.55;16.32;;;;;;;18.71;100.00;99184.27;1762658;81;21175;-72
2022/09/30 06:57:54;;;;;;;22.58;15.90;;;;;;;18.77;100.00;99185.30;1763064;81;20870;-73
2022/09/30 07:00:22;;;;;;;22.55;15.43;;;;;;;18.85;100.00;99187.00;1762892;81;21406;-73
2022/09/30 07:02:49;;;;;;;23.40;16.27;;;;;;;18.89;100.00;99190.61;1762646;81;21008;-72
2022/09/30 07:05:16;;;;;;;22.62;16.73;;;;;;;18.96;100.00;99196.84;1762828;81;20941;-72
2022/09/30 07:07:48;;;;;;;25.30;16.97;;;;;;;19.02;100.00;99184.13;1762748;81;21398;-74
2022/09/30 07:10:20;;;;;;;25.23;17.05;;;;;;;19.10;100.00;99187.80;1762219;81;20993;-72
2022/09/30 07:12:51;;;;;;;26.42;18.42;;;;;;;19.14;100.00;99190.65;1762898;81;20944;-72
2022/09/30 07:15:22;;;;;;;21.37;17.75;;;;;;;19.18;100.00;99190.88;1762135;80;20972;-72
2022/09/30 07:17:57;;;;;;;25.43;19.32;;;;;;;19.23;100.00;99198.70;1762655;81;20901;-73
2022/09/30 07:20:24;;;;;;;23.30;17.07;;;;;;;19.27;100.00;99195.33;1762880;81;21720;-72
2022/09/30 07:22:56;;;;;;;31.35;18.67;;;;;;;19.30;100.00;99198.15;1762516;81;20976;-73
2022/09/30 07:25:22;;;;;;;22.70;18.45;;;;;;;19.33;100.00;99195.97;1767935;81;20869;-71
2022/09/30 07:27:53;;;;;;;30.00;19.65;;;;;;;19.37;100.00;99207.17;1762775;81;21020;-72
2022/09/30 07:30:19;;;;;;;23.27;18.48;;;;;;;19.39;100.00;99201.20;1763218;81;20929;-70
2022/09/30 07:32:47;;;;;;;22.67;16.73;;;;;;;19.42;100.00;99208.20;1762660;81;21504;-72
2022/09/30 07:35:13;;;;;;;24.43;17.10;;;;;;;19.45;100.00;99206.61;1762807;81;20862;-71
2022/09/30 07:37:40;;;;;;;28.90;19.10;;;;;;;19.45;100.00;99210.80;1762664;81;20981;-72
2022/09/30 07:40:08;;;;;;;25.70;18.95;;;;;;;19.49;100.00;99210.83;1762842;81;21076;-71
2022/09/30 07:42:37;;;;;;;29.35;18.50;;;;;;;19.49;100.00;99217.23;1762955;81;20913;-71
2022/09/30 07:45:07;;;;;;;23.60;18.60;;;;;;;19.50;100.00;99209.66;1763092;79;21169;-71
2022/09/30 07:47:33;;;;;;;28.20;17.85;;;;;;;19.50;100.00;99206.25;1765478;81;20873;-70
2022/09/30 07:50:00;;;;;;;25.52;18.87;;;;;;;19.52;100.00;99210.05;1765407;81;20905;-71
2022/09/30 07:52:26;;;;;;;19.67;16.07;;;;;;;19.54;100.00;99216.87;1765386;81;20960;-73
2022/09/30 07:54:54;;;;;;;25.77;19.17;;;;;;;19.57;100.00;99219.47;1765573;81;20937;-72
2022/09/30 07:57:21;;;;;;;24.23;18.02;;;;;;;19.61;100.00;99224.49;1765393;81;21134;-73
2022/09/30 07:59:47;;;;;;;24.55;18.80;;;;;;;19.63;100.00;99228.30;1765389;81;21001;-72
2022/09/30 08:02:16;;;;;;;24.05;18.23;;;;;;;19.62;100.00;99227.48;1765455;81;21434;-72
2022/09/30 08:04:44;;;;;;;24.43;17.50;;;;;;;19.66;100.00;99226.11;1765388;81;20941;-73
2022/09/30 08:07:13;;;;;;;20.68;16.75;;;;;;;19.68;100.00;99230.14;1765513;81;20968;-71
2022/09/30 08:09:39;;;;;;;19.55;15.23;;;;;;;19.73;100.00;99238.73;1765483;81;21105;-71
2022/09/30 08:12:06;;;;;;;22.10;14.70;;;;;;;19.77;100.00;99234.58;1765466;81;20925;-72
2022/09/30 08:14:34;;;;;;;24.87;16.67;;;;;;;19.81;100.00;99231.19;1765365;80;22301;-72
2022/09/30 08:17:02;;;;;;;18.60;16.20;;;;;;;19.88;100.00;99236.83;1746214;81;20940;-72
2022/09/30 08:19:44;;;;;;;23.92;17.20;;;;;;;19.90;100.00;99225.25;1764606;81;21066;-72
2022/09/30 08:22:12;;;;;;;21.02;16.35;;;;;;;19.96;100.00;99229.27;1765308;81;21442;-72
2022/09/30 08:24:39;;;;;;;22.62;16.85;;;;;;;19.92;100.00;99232.06;1765324;81;21469;-72
2022/09/30 08:27:06;;;;;;;23.47;16.55;;;;;;;19.92;100.00;99234.05;1765370;81;21042;-72
2022/09/30 08:29:33;;;;;;;23.65;16.80;;;;;;;20.00;100.00;99239.88;1765342;81;20881;-70
2022/09/30 08:32:00;;;;;;;22.42;17.60;;;;;;;20.08;100.00;99233.75;1765531;81;20964;-72
2022/09/30 08:34:32;;;;;;;23.27;17.42;;;;;;;20.09;100.00;99239.56;1765460;81;21060;-70
2022/09/30 08:36:55;;;;;;;25.70;16.95;;;;;;;20.14;100.00;99232.78;1765092;81;20945;-77
2022/09/30 08:39:22;;;;;;;22.25;16.77;;;;;;;20.26;100.00;99240.84;1765582;81;20941;-71
2022/09/30 08:42:02;;;;;;;22.35;16.37;;;;;;;20.26;100.00;99242.23;1765643;81;20909;-71
2022/09/30 08:44:47;;;;;;;;;;;;;;;20.35;100.00;99244.64;1768097;81;20977;-71
2022/09/30 08:47:39;;;;;;;21.55;16.62;;;;;;;20.44;100.00;99248.48;1763160;80;22049;-71
2022/09/30 08:50:43;;;;;;;22.67;16.87;;;;;;;20.43;100.00;99249.09;1763309;81;21564;-71
2022/09/30 08:53:14;;;;;;;23.38;17.12;;;;;;;20.43;100.00;99251.08;1735087;81;20905;-71
2022/09/30 08:55:43;;;;;;;22.75;16.95;;;;;;;20.49;100.00;99248.09;1763001;81;21533;-70
2022/09/30 08:58:15;;;;;;;26.20;16.85;;;;;;;20.54;100.00;99251.91;1762780;81;21044;-71
2022/09/30 09:00:46;;;;;;;22.70;16.05;;;;;;;20.55;100.00;99248.52;1762623;81;21296;-76
2022/09/30 09:03:30;;;;;;;26.97;18.27;;;;;;;20.57;100.00;99247.53;1759087;81;20897;-77
2022/09/30 09:06:17;;;;;;;27.62;17.48;;;;;;;20.63;100.00;99250.14;1760912;81;21012;-74
2022/09/30 09:09:04;;;;;;;24.25;17.15;;;;;;;20.88;100.00;99247.98;1761976;80;20854;-77
2022/09/30 09:12:01;;;;;;;32.00;18.62;;;;;;;21.09;100.00;99251.23;1762842;81;21044;-79
2022/09/30 09:14:49;;;;;;;30.30;18.98;;;;;;;21.28;100.00;99249.45;1762697;80;21547;-78
2022/09/30 09:17:50;;;;;;;27.20;17.17;;;;;;;21.37;100.00;99249.05;1762957;81;21442;-75
2022/09/30 09:20:20;;;;;;;31.23;18.40;;;;;;;21.46;100.00;99252.83;1693298;81;21028;-78
2022/09/30 09:22:50;;;;;;;26.60;18.25;;;;;;;21.57;100.00;99248.63;1762674;81;21647;-79
2022/09/30 09:25:21;;;;;;;34.50;20.25;;;;;;;21.67;100.00;99244.20;1762928;81;21560;-79
2022/09/30 09:27:58;;;;;;;28.42;19.75;;;;;;;21.77;100.00;99245.38;1762872;81;21773;-75
2022/09/30 09:30:27;;;;;;;28.10;18.65;;;;;;;21.82;100.00;99243.59;1762763;81;20874;-79
2022/09/30 09:32:57;;;;;;;29.23;17.82;;;;;;;21.90;100.00;99242.99;1761869;81;20953;-77
2022/09/30 09:35:40;;;;;;;29.77;19.67;;;;;;;21.89;100.00;99246.39;1762868;81;20921;-80
2022/09/30 09:38:29;;;;;;;28.80;17.77;;;;;;;21.89;100.00;99242.78;1749284;81;21028;-76
2022/09/30 09:41:05;;;;;;;28.90;19.50;;;;;;;21.91;100.00;99240.38;1762868;81;21513;-79
2022/09/30 09:44:16;;;;;;;30.32;20.02;;;;;;;21.93;100.00;99241.38;1762565;81;20916;-77
2022/09/30 09:47:05;;;;;;;29.82;19.48;;;;;;;21.96;100.00;99237.16;1763220;81;21095;-78
2022/09/30 09:49:36;;;;;;;28.98;19.62;;;;;;;21.99;100.00;99239.77;1733653;81;20921;-78
2022/09/30 09:52:44;;;;;;;28.50;20.15;;;;;;;22.00;100.00;99237.95;1763090;81;20830;-78
2022/09/30 09:55:14;;;;;;;27.75;18.55;;;;;;;22.04;100.00;99239.33;1762964;81;21025;-77
2022/09/30 09:57:41;;;;;;;29.57;19.12;;;;;;;22.05;100.00;99236.73;1762767;81;20881;-77
2022/09/30 10:03:22;;;;;;;26.10;17.57;;;;;;;22.06;100.00;99237.55;1762822;81;20925;-80
2022/09/30 10:06:08;;;;;;;23.30;17.37;;;;;;;22.11;100.00;99234.29;1763046;81;21529;-77
2022/09/30 10:08:56;;;;;;;30.82;18.37;;;;;;;22.14;100.00;99229.30;1762818;81;21084;-76
2022/09/30 10:11:26;;;;;;;21.37;16.75;;;;;;;22.21;100.00;99232.67;1762698;81;20989;-78
2022/09/30 10:13:57;;;;;;;29.27;16.55;;;;;;;22.30;100.00;99233.02;1762840;80;21406;-78
2022/09/30 10:16:38;;;;;;;23.90;15.80;;;;;;;22.42;100.00;99235.16;1761547;81;20924;-79
2022/09/30 10:19:17;;;;;;;25.72;16.67;;;;;;;22.47;100.00;99226.31;1762942;81;20981;-79
2022/09/30 10:21:48;;;;;;;23.50;15.83;;;;;;;22.55;100.00;99234.11;1762727;81;20977;-79
2022/09/30 10:24:31;;;;;;;20.60;15.63;;;;;;;22.58;100.00;99236.09;1762697;81;20984;-76
2022/09/30 10:26:59;;;;;;;28.10;15.55;;;;;;;22.59;100.00;99237.08;1762811;81;20965;-78
2022/09/30 10:29:28;;;;;;;29.00;17.75;;;;;;;22.63;100.00;99239.09;1763087;81;20921;-77
2022/09/30 10:31:56;;;;;;;21.45;15.83;;;;;;;22.63;100.00;99239.91;1762730;81;20993;-77
2022/09/30 10:34:39;;;;;;;19.15;15.65;;;;;;;22.68;100.00;99236.67;1762834;81;21529;-70
2022/09/30 10:37:19;;;;;;;21.27;15.03;;;;;;;22.67;100.00;99238.48;1763129;81;20905;-72
2022/09/30 10:40:00;;;;;;;17.27;12.95;;;;;;;22.70;100.00;99241.87;1762382;81;20984;-77
2022/09/30 10:42:33;;;;;;;21.20;12.60;;;;;;;22.70;100.00;99237.66;1762780;81;20913;-74
2022/09/30 10:45:08;;;;;;;15.45;11.22;;;;;;;22.68;100.00;99235.86;1762820;81;21426;-74
2022/09/30 10:47:42;;;;;;;16.07;11.15;;;;;;;22.61;100.00;99236.11;1762729;79;21291;-78
2022/09/30 10:50:16;;;;;;;22.70;12.07;;;;;;;22.61;100.00;99236.11;1762982;81;20992;-74
2022/09/30 10:52:57;;;;;;;19.75;11.53;;;;;;;22.64;100.00;99242.11;1762878;81;21457;-80
2022/09/30 10:55:32;;;;;;;20.90;11.33;;;;;;;22.66;100.00;99239.67;1762733;81;20925;-72
2022/09/30 10:58:43;;;;;;;18.75;11.45;;;;;;;22.69;100.00;99238.25;1762801;81;21032;-71
2022/09/30 11:01:37;;;;;;;21.05;10.85;;;;;;;22.80;100.00;99241.00;1762833;81;21474;-72
2022/09/30 11:04:27;;;;;;;14.80;10.48;;;;;;;22.88;100.00;99232.54;1762729;81;20928;-76
2022/09/30 11:07:13;;;;;;;11.95;9.23;;;;;;;22.93;100.00;99241.91;1763002;81;21440;-72
2022/09/30 11:09:46;;;;;;;17.27;11.43;;;;;;;22.97;100.00;99235.67;1762926;81;21497;-76
2022/09/30 11:12:33;;;;;;;17.40;10.38;;;;;;;23.01;100.00;99244.08;1762855;81;20862;-77
2022/09/30 11:15:17;;;;;;;15.63;10.32;;;;;;;23.04;100.00;99246.05;1762822;80;22942;-75
2022/09/30 11:18:07;;;;;;;18.62;11.18;;;;;;;23.12;100.00;99250.40;1746577;81;21003;-79
2022/09/30 11:20:52;;;;;;;14.73;10.13;;;;;;;23.21;100.00;99247.94;1763125;81;20874;-75
2022/09/30 11:23:37;;;;;;;15.85;9.28;;;;;;;23.25;100.00;99251.31;1762715;81;21462;-76
2022/09/30 11:26:21;;;;;;;16.25;8.53;;;;;;;23.31;100.00;99247.64;1763185;81;20913;-78
2022/09/30 11:29:05;;;;;;;17.82;10.23;;;;;;;23.45;100.00;99245.95;1762196;81;21807;-78
2022/09/30 11:31:38;;;;;;;;;;;;;;;23.51;100.00;99242.09;1716462;81;20930;-76
2022/09/30 11:34:33;;;;;;;16.85;8.78;;;;;;;23.55;100.00;99252.08;1762790;81;32340;-73
2022/09/30 11:37:05;;;;;;;;;;;;;;;23.51;100.00;99251.30;1765464;81;20925;-75
2022/09/30 11:40:04;;;;;;;13.62;8.30;;;;;;;23.52;100.00;99257.73;1762958;80;20093;-72
2022/09/30 11:42:39;;;;;;;15.65;8.68;;;;;;;23.52;100.00;99257.73;1762770;81;21108;-78
2022/09/30 11:45:39;;;;;;;14.47;8.88;;;;;;;23.59;100.00;99261.89;1761883;81;20988;-78
2022/09/30 11:48:37;;;;;;;16.37;9.58;;;;;;;23.68;100.00;99263.59;1703530;82;20949;-76
2022/09/30 11:51:12;;;;;;;19.57;9.03;;;;;;;23.81;100.00;99262.48;1715881;83;20925;-74
2022/09/30 11:54:16;;;;;;;16.23;9.38;;;;;;;23.95;100.00;99262.13;1715861;83;20993;-77
2022/09/30 11:57:11;;;;;;;16.65;9.93;;;;;;;24.07;100.00;99253.13;1713705;82;20941;-77